createdAt,value
2019-01-17T00:02:48.806Z,6.50
2019-01-17T00:05:38.253Z,5.13
2019-01-17T00:08:25.789Z,5.80
2019-01-17T00:11:25.251Z,5.83
2019-01-17T00:14:07.299Z,6.43
2019-01-17T00:16:49.247Z,7.50
2019-01-17T00:19:55.180Z,7.17
2019-01-17T00:22:53.134Z,11.67
2019-01-17T00:25:41.390Z,9.13
2019-01-17T00:28:34.903Z,9.07
2019-01-17T00:31:21.126Z,8.50
2019-01-17T00:34:26.769Z,11.20
2019-01-17T00:37:17.346Z,8.60
2019-01-17T00:40:23.208Z,9.50
2019-01-17T00:43:06.883Z,8.50
2019-01-17T00:45:53.133Z,8.17
2019-01-17T00:48:41.453Z,8.73
2019-01-17T00:51:49.969Z,9.20
2019-01-17T00:54:46.240Z,8.30
2019-01-17T00:57:52.910Z,8.27
2019-01-17T01:00:48.488Z,7.10
2019-01-17T01:03:34.282Z,6.87
2019-01-17T01:06:29.638Z,7.77
2019-01-17T01:09:19.080Z,7.13
2019-01-17T01:12:18.602Z,6.10
2019-01-17T01:15:13.675Z,5.57
2019-01-17T01:18:02.666Z,5.30
2019-01-17T01:20:48.290Z,7.30
2019-01-17T01:23:44.451Z,6.37
2019-01-17T01:26:40.854Z,6.77
2019-01-17T01:29:31.168Z,4.80
2019-01-17T01:32:20.519Z,5.20
2019-01-17T01:35:00.189Z,6.67
2019-01-17T01:37:51.197Z,7.47
2019-01-17T01:40:40.607Z,8.40
2019-01-17T01:43:29.840Z,6.77
2019-01-17T01:46:19.103Z,6.37
2019-01-17T01:49:09.374Z,7.17
2019-01-17T01:52:01.245Z,6.67
2019-01-17T01:54:32.811Z,6.83
2019-01-17T01:57:04.332Z,7.93
2019-01-17T01:59:35.690Z,7.97
2019-01-17T02:02:07.002Z,8.37
2019-01-17T02:04:39.729Z,9.33
2019-01-17T02:07:11.426Z,8.23
2019-01-17T02:09:42.853Z,10.00
2019-01-17T02:12:14.196Z,9.73
2019-01-17T02:14:46.582Z,11.17
2019-01-17T02:17:18.336Z,11.93
2019-01-17T02:19:50.422Z,12.23
2019-01-17T02:22:22.061Z,13.07
2019-01-17T02:24:57.361Z,12.10
2019-01-17T02:27:29.694Z,12.33
2019-01-17T02:30:01.478Z,11.33
2019-01-17T02:32:33.743Z,12.37
2019-01-17T02:35:05.887Z,12.50
2019-01-17T02:37:39.294Z,11.63
2019-01-17T02:40:12.421Z,11.67
2019-01-17T02:42:43.846Z,12.27
2019-01-17T02:45:16.297Z,12.83
2019-01-17T02:47:48.241Z,12.97
2019-01-17T02:50:19.624Z,13.93
2019-01-17T02:52:51.113Z,14.43
2019-01-17T02:55:23.161Z,13.57
2019-01-17T02:57:54.600Z,14.00
2019-01-17T03:00:27.888Z,14.73
2019-01-17T03:02:59.781Z,13.17
2019-01-17T03:05:33.287Z,13.93
2019-01-17T03:08:04.838Z,13.30
2019-01-17T03:10:37.337Z,14.07
2019-01-17T03:13:09.685Z,13.77
2019-01-17T03:15:42.103Z,14.60
2019-01-17T03:18:13.722Z,16.13
2019-01-17T03:20:45.109Z,14.70
2019-01-17T03:23:16.589Z,14.77
2019-01-17T03:25:48.191Z,14.43
2019-01-17T03:28:20.861Z,16.17
2019-01-17T03:30:52.725Z,15.57
2019-01-17T03:33:24.672Z,15.93
2019-01-17T03:35:56.170Z,14.83
2019-01-17T03:38:27.662Z,17.00
2019-01-17T03:40:59.084Z,15.13
2019-01-17T03:43:30.887Z,15.63
2019-01-17T03:46:02.931Z,15.63
2019-01-17T03:48:34.307Z,19.43
2019-01-17T03:51:05.969Z,16.13
2019-01-17T03:53:37.461Z,17.97
2019-01-17T03:56:09.596Z,16.20
2019-01-17T03:58:41.548Z,17.00
2019-01-17T04:01:13.285Z,15.90
2019-01-17T04:03:46.802Z,15.90
2019-01-17T04:06:18.275Z,17.87
2019-01-17T04:08:52.746Z,19.80
2019-01-17T04:11:24.269Z,18.73
2019-01-17T04:13:57.913Z,19.97
2019-01-17T04:16:29.242Z,20.07
2019-01-17T04:19:02.468Z,18.37
2019-01-17T04:21:34.200Z,15.70
2019-01-17T04:24:06.176Z,18.30
2019-01-17T04:26:38.554Z,21.03
2019-01-17T04:29:11.426Z,17.47
2019-01-17T04:31:43.070Z,18.60
2019-01-17T04:34:16.023Z,17.67
2019-01-17T04:36:47.722Z,17.23
2019-01-17T04:39:19.586Z,16.63
2019-01-17T04:41:51.006Z,19.67
2019-01-17T04:44:24.310Z,17.57
2019-01-17T04:46:56.372Z,18.13
2019-01-17T04:49:27.800Z,17.73
2019-01-17T04:51:59.240Z,19.33
2019-01-17T04:54:30.587Z,16.50
2019-01-17T04:57:02.328Z,15.87
2019-01-17T04:59:34.089Z,16.87
2019-01-17T05:02:05.578Z,16.67
2019-01-17T05:04:37.085Z,18.80
2019-01-17T05:07:08.869Z,17.87
2019-01-17T05:09:40.299Z,18.87
2019-01-17T05:12:13.586Z,17.93
2019-01-17T05:14:45.164Z,17.00
2019-01-17T05:17:16.705Z,18.83
2019-01-17T05:19:48.187Z,17.20
2019-01-17T05:22:19.631Z,18.30
2019-01-17T05:24:51.179Z,17.70
2019-01-17T05:27:22.714Z,15.50
2019-01-17T05:29:54.083Z,14.23
2019-01-17T05:32:26.148Z,16.83
2019-01-17T05:34:57.828Z,12.63
2019-01-17T05:37:29.459Z,15.13
2019-01-17T05:40:03.267Z,16.00
2019-01-17T05:42:34.739Z,13.07
2019-01-17T05:45:07.191Z,13.93
2019-01-17T05:47:38.913Z,14.03
2019-01-17T05:50:13.132Z,8.47
2019-01-17T05:52:46.115Z,9.47
2019-01-17T05:55:19.985Z,19.83
2019-01-17T05:57:51.713Z,7.80
2019-01-17T06:00:23.529Z,6.57
2019-01-17T06:02:55.195Z,7.80
2019-01-17T06:05:27.457Z,5.93
2019-01-17T06:07:58.767Z,6.27
2019-01-17T06:10:30.210Z,6.23
2019-01-17T06:13:01.856Z,6.07
2019-01-17T06:15:33.750Z,5.53
2019-01-17T06:18:05.980Z,4.23
2019-01-17T06:20:37.493Z,3.87
2019-01-17T06:23:10.310Z,4.80
2019-01-17T06:25:41.983Z,5.90
2019-01-17T06:28:13.863Z,4.03
2019-01-17T06:30:45.830Z,5.67
2019-01-17T06:33:18.344Z,3.37
2019-01-17T06:35:51.803Z,4.00
2019-01-17T06:38:23.887Z,4.50
2019-01-17T06:40:55.575Z,2.60
2019-01-17T06:43:27.239Z,2.80
2019-01-17T06:45:59.190Z,3.30
2019-01-17T06:48:30.656Z,2.07
2019-01-17T06:51:02.247Z,2.63
2019-01-17T06:53:33.772Z,2.00
2019-01-17T06:56:05.486Z,2.83
2019-01-17T06:58:36.968Z,3.07
2019-01-17T07:01:08.502Z,2.13
2019-01-17T07:03:39.940Z,2.13
2019-01-17T07:06:11.406Z,1.97
2019-01-17T07:08:43.218Z,2.17
2019-01-17T07:11:16.106Z,2.63
2019-01-17T07:13:47.601Z,1.90
2019-01-17T07:16:19.193Z,2.80
2019-01-17T07:18:50.956Z,3.33
2019-01-17T07:21:22.266Z,4.83
2019-01-17T07:23:56.932Z,4.17
2019-01-17T07:26:29.215Z,2.67
2019-01-17T07:29:02.191Z,2.57
2019-01-17T07:31:33.749Z,3.43
2019-01-17T07:34:06.513Z,3.23
2019-01-17T07:36:38.470Z,3.43
2019-01-17T07:39:09.947Z,3.80
2019-01-17T07:41:41.833Z,4.20
2019-01-17T07:44:13.352Z,4.00
2019-01-17T07:46:46.663Z,5.40
2019-01-17T07:49:18.431Z,3.50
2019-01-17T07:51:50.057Z,3.40
2019-01-17T07:54:21.955Z,4.87
2019-01-17T07:56:55.288Z,4.57
2019-01-17T07:59:27.337Z,3.90
2019-01-17T08:01:59.149Z,3.10
2019-01-17T08:04:30.522Z,2.50
2019-01-17T08:07:02.130Z,3.20
2019-01-17T08:09:34.321Z,3.10
2019-01-17T08:12:06.322Z,2.20
2019-01-17T08:14:38.392Z,2.40
2019-01-17T08:17:10.627Z,2.30
2019-01-17T08:19:45.069Z,2.60
2019-01-17T08:22:18.341Z,2.87
2019-01-17T08:24:50.134Z,3.23
2019-01-17T08:27:22.263Z,3.83
2019-01-17T08:29:54.209Z,3.97
2019-01-17T08:32:25.714Z,5.37
2019-01-17T08:34:57.375Z,4.53
2019-01-17T08:37:28.893Z,3.83
2019-01-17T08:40:00.603Z,4.43
2019-01-17T08:42:32.259Z,4.40
2019-01-17T08:45:03.909Z,4.37
2019-01-17T08:47:37.323Z,4.50
2019-01-17T08:50:10.388Z,4.17
2019-01-17T08:52:43.192Z,4.37
2019-01-17T08:55:15.944Z,4.80
2019-01-17T08:57:47.826Z,4.80
2019-01-17T09:00:22.180Z,7.23
2019-01-17T09:02:54.034Z,5.07
2019-01-17T09:05:25.761Z,5.30
2019-01-17T09:07:57.619Z,6.47
2019-01-17T09:10:30.970Z,3.93
2019-01-17T09:13:03.375Z,5.20
2019-01-17T09:15:36.031Z,5.57
2019-01-17T09:18:07.651Z,4.13
2019-01-17T09:20:39.668Z,6.50
2019-01-17T09:23:13.131Z,5.80
2019-01-17T09:25:45.669Z,3.90
2019-01-17T09:28:18.578Z,5.07
2019-01-17T09:30:50.272Z,4.20
2019-01-17T09:33:21.917Z,5.87
2019-01-17T09:38:33.978Z,7.37
2019-01-17T09:41:05.591Z,6.60
2019-01-17T09:43:38.074Z,6.67
2019-01-17T09:46:09.740Z,8.23
2019-01-17T09:48:41.814Z,10.87
2019-01-17T09:51:13.370Z,5.60
2019-01-17T09:53:44.887Z,6.90
2019-01-17T09:56:17.569Z,4.67
2019-01-17T09:58:49.836Z,6.10
2019-01-17T10:01:22.199Z,5.70
2019-01-17T10:03:53.696Z,3.70
2019-01-17T10:06:25.510Z,3.27
2019-01-17T10:08:57.354Z,2.17
2019-01-17T10:11:30.394Z,1.97
2019-01-17T10:14:02.223Z,2.30
2019-01-17T10:17:02.680Z,6.00
2019-01-17T10:20:15.957Z,4.83
2019-01-17T10:23:33.381Z,2.60
2019-01-17T10:26:41.947Z,6.90
2019-01-17T10:29:44.080Z,6.73
2019-01-17T10:32:47.452Z,5.47
2019-01-17T10:35:50.681Z,7.50
2019-01-17T10:38:31.612Z,3.77
2019-01-17T10:41:56.451Z,4.47
2019-01-17T10:45:23.113Z,1.53
2019-01-17T10:48:36.959Z,4.10
2019-01-17T10:51:50.134Z,3.97
2019-01-17T10:55:18.859Z,3.57
2019-01-17T10:58:08.990Z,4.70
2019-01-17T11:01:09.594Z,7.20
2019-01-17T11:04:33.373Z,6.80
2019-01-17T11:07:32.075Z,7.80
2019-01-17T11:10:37.054Z,5.87
2019-01-17T11:13:53.055Z,2.93
2019-01-17T11:16:51.964Z,5.40
2019-01-17T11:19:58.470Z,2.93
2019-01-17T11:23:13.799Z,8.23
2019-01-17T11:25:53.725Z,8.60
2019-01-17T11:29:12.260Z,7.73
2019-01-17T11:32:08.081Z,4.30
2019-01-17T11:35:12.440Z,7.73
2019-01-17T11:38:03.116Z,9.60
2019-01-17T11:41:31.067Z,5.70
2019-01-17T11:44:42.190Z,5.33
2019-01-17T11:47:46.153Z,8.10
2019-01-17T11:50:25.604Z,8.43
2019-01-17T11:53:35.107Z,10.90
2019-01-17T11:56:41.079Z,7.20
2019-01-17T11:59:39.845Z,6.73
2019-01-17T12:02:39.112Z,7.97
2019-01-17T12:05:07.601Z,8.27
2019-01-17T12:07:39.612Z,9.63
2019-01-17T12:10:14.153Z,7.77
2019-01-17T12:12:45.869Z,8.97
2019-01-17T12:15:17.505Z,5.53
2019-01-17T12:17:51.206Z,6.53
2019-01-17T12:20:23.048Z,11.13
2019-01-17T12:22:54.666Z,10.27
2019-01-17T12:25:26.770Z,9.37
2019-01-17T12:27:58.799Z,11.73
2019-01-17T12:30:32.361Z,5.27
2019-01-17T12:33:04.287Z,7.57
2019-01-17T12:35:35.816Z,8.17
2019-01-17T12:38:07.504Z,10.67
2019-01-17T12:40:39.907Z,11.80
2019-01-17T12:43:12.009Z,9.30
2019-01-17T12:45:45.966Z,5.57
2019-01-17T12:48:21.079Z,4.53
2019-01-17T12:50:53.357Z,4.10
2019-01-17T12:53:24.995Z,4.93
2019-01-17T12:55:56.854Z,7.67
2019-01-17T12:58:30.733Z,2.67
2019-01-17T13:01:02.715Z,4.50
2019-01-17T13:03:34.864Z,5.00
2019-01-17T13:06:06.972Z,3.00
2019-01-17T13:08:39.093Z,4.97
2019-01-17T13:11:10.700Z,3.57
2019-01-17T13:13:42.309Z,4.27
2019-01-17T13:16:13.841Z,6.07
2019-01-17T13:18:47.422Z,3.80
2019-01-17T13:21:20.143Z,6.17
2019-01-17T13:23:52.805Z,2.50
2019-01-17T13:26:24.351Z,6.73
2019-01-17T13:28:56.271Z,4.30
2019-01-17T13:31:28.253Z,6.70
2019-01-17T13:33:59.709Z,10.00
2019-01-17T13:36:32.815Z,7.47
2019-01-17T13:39:06.473Z,6.03
2019-01-17T13:41:38.241Z,7.37
2019-01-17T13:44:10.109Z,11.67
2019-01-17T13:46:42.081Z,8.40
2019-01-17T13:49:14.861Z,7.13
2019-01-17T13:51:46.627Z,11.40
2019-01-17T13:54:18.335Z,6.87
2019-01-17T13:56:49.973Z,9.13
2019-01-17T13:59:21.651Z,8.03
2019-01-17T14:01:56.214Z,6.77
2019-01-17T14:04:30.572Z,6.87
2019-01-17T14:07:02.455Z,12.83
2019-01-17T14:09:34.163Z,7.10
2019-01-17T14:12:05.738Z,11.60
2019-01-17T14:14:39.061Z,6.50
2019-01-17T14:17:10.383Z,9.27
2019-01-17T14:19:42.301Z,10.10
2019-01-17T14:22:16.806Z,7.77
2019-01-17T14:24:48.201Z,10.33
2019-01-17T14:27:20.024Z,9.10
2019-01-17T14:29:51.921Z,7.07
2019-01-17T14:32:23.734Z,7.20
2019-01-17T14:34:55.278Z,6.43
2019-01-17T14:37:26.622Z,8.53
2019-01-17T14:39:57.982Z,5.13
2019-01-17T14:42:29.636Z,6.03
2019-01-17T14:45:01.050Z,10.23
2019-01-17T14:47:33.054Z,7.50
2019-01-17T14:50:06.131Z,6.47
2019-01-17T14:52:39.500Z,9.70
2019-01-17T14:55:11.358Z,9.60
2019-01-17T14:57:43.478Z,9.50
2019-01-17T15:00:17.838Z,5.57
2019-01-17T15:02:49.512Z,4.80
2019-01-17T15:05:20.916Z,4.47
2019-01-17T15:07:52.662Z,6.87
2019-01-17T15:10:27.289Z,5.77
2019-01-17T15:12:59.713Z,5.70
2019-01-17T15:15:32.212Z,7.07
2019-01-17T15:18:03.952Z,6.63
2019-01-17T15:20:35.873Z,12.37
2019-01-17T15:23:09.092Z,7.50
2019-01-17T15:25:41.189Z,8.33
2019-01-17T15:28:12.805Z,9.47
2019-01-17T15:30:44.753Z,10.43
2019-01-17T15:33:16.656Z,6.03
2019-01-17T15:35:48.958Z,7.87
2019-01-17T15:38:20.597Z,6.77
2019-01-17T15:40:52.151Z,6.17
2019-01-17T15:43:24.771Z,5.53
2019-01-17T15:45:57.789Z,10.27
2019-01-17T15:48:30.112Z,7.37
2019-01-17T15:51:01.856Z,9.23
2019-01-17T15:53:33.482Z,9.60
2019-01-17T15:56:05.078Z,8.20
2019-01-17T15:58:38.367Z,6.57
2019-01-17T16:01:09.985Z,6.33
2019-01-17T16:03:41.543Z,5.73
2019-01-17T16:06:13.346Z,5.03
2019-01-17T16:08:46.104Z,5.87
2019-01-17T16:11:18.045Z,3.57
2019-01-17T16:13:49.975Z,7.67
2019-01-17T16:16:22.591Z,7.73
2019-01-17T16:18:53.916Z,10.40
2019-01-17T16:21:26.927Z,6.23
2019-01-17T16:23:59.186Z,7.97
2019-01-17T16:26:30.872Z,9.97
2019-01-17T16:29:02.297Z,5.77
2019-01-17T16:31:33.781Z,7.57
2019-01-17T16:34:05.481Z,6.70
2019-01-17T16:36:37.496Z,7.03
2019-01-17T16:39:11.496Z,8.40
2019-01-17T16:41:43.062Z,7.13
2019-01-17T16:44:14.780Z,5.57
2019-01-17T16:46:46.366Z,6.40
2019-01-17T16:49:18.414Z,8.60
2019-01-17T16:51:50.150Z,4.30
2019-01-17T16:54:21.679Z,4.40
2019-01-17T16:56:53.556Z,4.83
2019-01-17T16:59:25.977Z,7.77
2019-01-17T17:01:57.392Z,8.07
2019-01-17T17:04:29.513Z,5.67
2019-01-17T17:07:01.200Z,7.90
2019-01-17T17:09:34.308Z,11.67
2019-01-17T17:12:06.264Z,6.53
2019-01-17T17:14:39.579Z,11.97
2019-01-17T17:17:11.164Z,7.60
2019-01-17T17:19:42.540Z,10.73
2019-01-17T17:22:16.778Z,12.87
2019-01-17T17:24:49.535Z,9.17
2019-01-17T17:27:22.018Z,15.20
2019-01-17T17:29:53.618Z,22.20
2019-01-17T17:32:26.570Z,36.67
2019-01-17T17:34:58.399Z,21.77
2019-01-17T17:37:30.447Z,13.23
2019-01-17T17:40:02.468Z,7.30
2019-01-17T17:42:34.459Z,17.43
2019-01-17T17:45:06.872Z,12.23
2019-01-17T17:47:42.092Z,7.83
2019-01-17T17:50:14.665Z,7.50
2019-01-17T17:52:46.572Z,7.37
2019-01-17T17:55:19.904Z,6.77
2019-01-17T17:57:51.396Z,8.63
2019-01-17T18:00:55.383Z,6.57
2019-01-17T18:03:26.863Z,10.53
2019-01-17T18:05:59.687Z,6.97
2019-01-17T18:08:31.485Z,9.50
2019-01-17T18:11:03.261Z,8.07
2019-01-17T18:13:35.091Z,9.67
2019-01-17T18:16:06.955Z,13.60
2019-01-17T18:18:38.802Z,7.10
2019-01-17T18:21:11.526Z,8.40
2019-01-17T18:23:44.469Z,7.00
2019-01-17T18:26:16.093Z,8.53
2019-01-17T18:28:47.699Z,8.80
2019-01-17T18:31:19.329Z,7.90
2019-01-17T18:33:55.297Z,11.50
2019-01-17T18:36:28.495Z,9.97
2019-01-17T18:39:01.765Z,11.90
2019-01-17T18:41:33.963Z,10.47
2019-01-17T18:44:05.686Z,7.67
2019-01-17T18:46:37.126Z,8.53
2019-01-17T18:49:08.677Z,9.53
2019-01-17T18:51:40.258Z,10.43
2019-01-17T18:54:11.837Z,5.93
2019-01-17T18:56:43.479Z,14.47
2019-01-17T18:59:17.885Z,9.83
2019-01-17T19:01:49.397Z,7.67
2019-01-17T19:04:21.107Z,7.50
2019-01-17T19:06:52.208Z,4.90
2019-01-17T19:09:24.825Z,5.73
2019-01-17T19:12:14.590Z,4.37
2019-01-17T19:14:46.179Z,3.47
2019-01-17T19:17:17.724Z,5.00
2019-01-17T19:19:49.430Z,2.30
2019-01-17T19:22:21.418Z,4.83
2019-01-17T19:24:53.297Z,7.50
2019-01-17T19:27:24.774Z,4.83
2019-01-17T19:29:56.658Z,4.47
2019-01-17T19:32:30.323Z,6.20
2019-01-17T19:35:02.257Z,5.20
2019-01-17T19:37:33.579Z,5.03
2019-01-17T19:40:06.507Z,8.80
2019-01-17T19:42:39.192Z,8.23
2019-01-17T19:45:12.520Z,7.90
2019-01-17T19:47:44.166Z,10.23
2019-01-17T19:50:27.864Z,8.53
2019-01-17T19:53:01.866Z,6.17
2019-01-17T19:55:35.108Z,6.67
2019-01-17T19:58:06.676Z,8.77
2019-01-17T20:00:38.446Z,13.60
2019-01-17T20:03:10.189Z,8.23
2019-01-17T20:05:42.208Z,5.97
2019-01-17T20:08:13.858Z,5.33
2019-01-17T20:10:45.410Z,7.97
2019-01-17T20:13:20.906Z,5.33
2019-01-17T20:15:52.518Z,3.60
2019-01-17T20:18:26.141Z,4.40
2019-01-17T20:20:58.208Z,3.80
2019-01-17T20:23:29.653Z,3.93
2019-01-17T20:26:03.294Z,4.83
2019-01-17T20:28:35.815Z,7.50
2019-01-17T20:31:07.513Z,6.57
2019-01-17T20:33:39.255Z,5.30
2019-01-17T20:36:10.834Z,4.13
2019-01-17T20:38:44.777Z,4.37
2019-01-17T20:41:16.625Z,5.03
2019-01-17T20:43:48.024Z,4.90
2019-01-17T20:46:21.495Z,4.73
2019-01-17T20:48:53.353Z,7.53
2019-01-17T20:51:25.256Z,4.03
2019-01-17T20:53:57.035Z,5.23
2019-01-17T20:56:32.069Z,2.43
2019-01-17T20:59:04.581Z,8.33
2019-01-17T21:02:22.802Z,3.20
2019-01-17T21:04:57.111Z,3.97
2019-01-17T21:07:28.622Z,3.10
2019-01-17T21:10:00.594Z,3.43
2019-01-17T21:12:31.979Z,3.53
2019-01-17T21:15:03.993Z,1.90
2019-01-17T21:17:35.553Z,1.53
2019-01-17T21:20:07.989Z,1.23
2019-01-17T21:22:40.501Z,1.33
2019-01-17T21:25:14.258Z,1.37
2019-01-17T21:27:46.001Z,3.43
2019-01-17T21:30:25.507Z,2.70
2019-01-17T21:32:59.482Z,1.70
2019-01-17T21:35:35.391Z,4.63
2019-01-17T21:38:07.977Z,3.20
2019-01-17T21:40:40.011Z,4.00
2019-01-17T21:43:12.631Z,5.43
2019-01-17T21:45:44.506Z,6.30
2019-01-17T21:48:17.039Z,11.23
2019-01-17T21:50:49.520Z,6.30
2019-01-17T21:53:20.987Z,7.53
2019-01-17T21:55:52.891Z,6.93
2019-01-17T21:58:24.856Z,4.57
2019-01-17T22:00:58.168Z,4.60
2019-01-17T22:03:30.062Z,4.77
2019-01-17T22:06:01.980Z,5.27
2019-01-17T22:08:33.788Z,7.67
2019-01-17T22:11:05.227Z,8.33
2019-01-17T22:13:36.715Z,8.60
2019-01-17T22:16:08.095Z,11.77
2019-01-17T22:18:39.538Z,5.57
2019-01-17T22:21:12.384Z,11.07
2019-01-17T22:23:43.981Z,8.40
2019-01-17T22:26:20.995Z,10.87
2019-01-17T22:28:49.346Z,13.33
2019-01-17T22:31:22.402Z,13.00
2019-01-17T22:33:56.356Z,13.30
2019-01-17T22:36:28.111Z,12.00
2019-01-17T22:38:59.630Z,9.80
2019-01-17T22:41:32.539Z,10.60
2019-01-17T22:44:04.917Z,11.27
2019-01-17T22:46:36.838Z,11.13
2019-01-17T22:49:08.707Z,9.10
2019-01-17T22:51:41.614Z,14.43
2019-01-17T22:54:13.137Z,9.60
2019-01-17T22:56:44.697Z,5.00
2019-01-17T22:59:16.275Z,5.70
2019-01-17T23:01:47.815Z,6.67
2019-01-17T23:04:19.537Z,6.10
2019-01-17T23:06:50.944Z,6.90
2019-01-17T23:09:24.266Z,7.20
2019-01-17T23:11:55.898Z,6.00
2019-01-17T23:14:27.566Z,6.97
2019-01-17T23:16:59.995Z,7.83
2019-01-17T23:19:31.425Z,6.23
2019-01-17T23:22:03.007Z,4.73
2019-01-17T23:24:34.939Z,7.67
2019-01-17T23:27:06.466Z,7.43
2019-01-17T23:29:38.015Z,8.30
2019-01-17T23:32:09.465Z,6.97
2019-01-17T23:34:41.177Z,10.77
2019-01-17T23:37:12.697Z,5.87
2019-01-17T23:39:45.453Z,9.53
2019-01-17T23:42:17.089Z,12.07
2019-01-17T23:44:48.852Z,6.37
2019-01-17T23:47:20.419Z,4.63
2019-01-17T23:49:55.063Z,10.63
2019-01-17T23:52:26.576Z,9.67
2019-01-17T23:54:57.943Z,8.40
2019-01-17T23:57:29.321Z,5.67
